createdAt,value
2017-07-26T00:01:35.733Z,15.30
2017-07-26T00:04:04.752Z,15.30
2017-07-26T00:06:33.749Z,15.30
2017-07-26T00:09:02.797Z,15.10
2017-07-26T00:11:31.803Z,15.20
2017-07-26T00:14:00.797Z,15.30
2017-07-26T00:16:29.805Z,15.40
2017-07-26T00:18:58.825Z,15.40
2017-07-26T00:21:27.849Z,15.40
2017-07-26T00:23:56.862Z,15.30
2017-07-26T00:26:25.873Z,15.30
2017-07-26T00:28:54.894Z,15.30
2017-07-26T00:31:23.905Z,15.30
2017-07-26T00:33:53.674Z,15.30
2017-07-26T00:36:22.724Z,15.30
2017-07-26T00:38:52.496Z,15.30
2017-07-26T00:41:21.509Z,15.30
2017-07-26T00:43:50.525Z,15.30
2017-07-26T00:46:20.306Z,15.30
2017-07-26T00:48:49.326Z,15.30
2017-07-26T00:51:19.101Z,15.40
2017-07-26T00:53:48.121Z,15.40
2017-07-26T00:56:17.841Z,15.40
2017-07-26T00:58:47.648Z,15.30
2017-07-26T01:01:33.193Z,15.30
2017-07-26T01:04:02.214Z,15.40
2017-07-26T01:06:31.208Z,15.40
2017-07-26T01:09:00.206Z,15.30
2017-07-26T01:11:29.204Z,15.30
2017-07-26T01:13:58.213Z,15.30
2017-07-26T01:16:27.214Z,15.30
2017-07-26T01:18:56.200Z,15.30
2017-07-26T01:21:25.218Z,15.30
2017-07-26T01:23:54.229Z,15.40
2017-07-26T01:26:23.239Z,15.30
2017-07-26T01:28:52.227Z,15.30
2017-07-26T01:31:21.248Z,15.30
2017-07-26T01:33:50.997Z,15.30
2017-07-26T01:36:20.029Z,15.30
2017-07-26T01:38:49.037Z,15.40
2017-07-26T01:41:18.024Z,15.40
2017-07-26T01:43:47.030Z,15.40
2017-07-26T01:46:16.023Z,15.40
2017-07-26T01:48:45.047Z,15.50
2017-07-26T01:51:14.053Z,15.50
2017-07-26T01:53:43.049Z,15.50
2017-07-26T01:56:12.270Z,15.50
2017-07-26T01:58:41.272Z,15.50
2017-07-26T02:01:10.263Z,15.50
2017-07-26T02:03:39.268Z,15.40
2017-07-26T02:06:08.260Z,15.40
2017-07-26T02:08:37.281Z,15.40
2017-07-26T02:11:06.994Z,15.50
2017-07-26T02:13:36.022Z,15.40
2017-07-26T02:16:05.017Z,15.40
2017-07-26T02:18:34.032Z,15.30
2017-07-26T02:21:03.032Z,15.30
2017-07-26T02:23:32.681Z,15.40
2017-07-26T02:26:01.689Z,15.40
2017-07-26T02:28:30.687Z,15.40
2017-07-26T02:30:59.696Z,15.40
2017-07-26T02:33:28.680Z,15.40
2017-07-26T02:35:57.703Z,15.40
2017-07-26T02:38:26.706Z,15.40
2017-07-26T02:40:55.712Z,15.40
2017-07-26T02:43:24.726Z,15.40
2017-07-26T02:45:53.741Z,15.30
2017-07-26T02:48:22.729Z,15.40
2017-07-26T02:50:51.758Z,15.30
2017-07-26T02:53:20.869Z,15.20
2017-07-26T02:55:49.918Z,15.30
2017-07-26T02:58:18.933Z,15.30
2017-07-26T03:00:47.925Z,15.30
2017-07-26T03:03:16.933Z,15.30
2017-07-26T03:05:45.936Z,15.30
2017-07-26T03:08:14.949Z,15.30
2017-07-26T03:10:43.950Z,15.40
2017-07-26T03:13:12.954Z,15.30
2017-07-26T03:15:42.037Z,15.30
2017-07-26T03:18:11.052Z,15.40
2017-07-26T03:20:40.041Z,15.30
2017-07-26T03:23:09.085Z,15.30
2017-07-26T03:25:38.075Z,15.40
2017-07-26T03:28:07.064Z,15.40
2017-07-26T03:30:36.084Z,15.40
2017-07-26T03:33:05.093Z,15.30
2017-07-26T03:35:34.153Z,15.40
2017-07-26T03:38:03.146Z,15.40
2017-07-26T03:40:32.144Z,15.40
2017-07-26T03:43:02.217Z,15.50
2017-07-26T03:45:31.232Z,15.50
2017-07-26T03:48:00.220Z,15.50
2017-07-26T03:50:29.432Z,15.50
2017-07-26T03:52:58.432Z,15.50
2017-07-26T03:55:27.424Z,15.50
2017-07-26T03:57:56.443Z,15.50
2017-07-26T04:00:25.432Z,15.50
2017-07-26T04:02:54.475Z,15.40
2017-07-26T04:05:24.229Z,15.40
2017-07-26T04:07:53.289Z,15.40
2017-07-26T04:10:22.298Z,15.40
2017-07-26T04:12:51.305Z,15.50
2017-07-26T04:15:20.300Z,15.50
2017-07-26T04:17:49.307Z,15.60
2017-07-26T04:20:18.296Z,15.60
2017-07-26T04:22:47.294Z,15.60
2017-07-26T04:25:16.295Z,15.60
2017-07-26T04:27:45.292Z,15.60
2017-07-26T04:30:14.323Z,15.60
2017-07-26T04:32:44.081Z,15.60
2017-07-26T04:35:13.093Z,15.60
2017-07-26T04:37:42.096Z,15.60
2017-07-26T04:40:11.113Z,15.60
2017-07-26T04:42:40.860Z,15.60
2017-07-26T04:45:10.823Z,15.60
2017-07-26T04:47:40.765Z,15.50
2017-07-26T04:50:09.807Z,15.60
2017-07-26T04:52:38.882Z,15.60
2017-07-26T04:55:07.869Z,15.60
2017-07-26T04:57:36.884Z,15.60
2017-07-26T05:00:05.877Z,15.60
2017-07-26T05:02:34.985Z,15.60
2017-07-26T05:05:03.988Z,15.60
2017-07-26T05:07:32.997Z,15.60
2017-07-26T05:10:02.049Z,15.60
2017-07-26T05:12:31.057Z,15.60
2017-07-26T05:15:00.061Z,15.60
2017-07-26T05:17:29.049Z,15.60
2017-07-26T05:19:58.101Z,15.60
2017-07-26T05:22:27.093Z,15.70
2017-07-26T05:24:56.228Z,15.60
2017-07-26T05:27:25.244Z,15.60
2017-07-26T05:29:54.238Z,15.60
2017-07-26T05:32:23.259Z,15.60
2017-07-26T05:34:52.256Z,15.60
2017-07-26T05:37:21.257Z,15.60
2017-07-26T05:39:50.276Z,15.60
2017-07-26T05:42:19.269Z,15.70
2017-07-26T05:44:48.260Z,15.60
2017-07-26T05:47:17.292Z,15.60
2017-07-26T05:49:47.091Z,15.70
2017-07-26T05:52:16.116Z,15.70
2017-07-26T05:54:45.110Z,15.60
2017-07-26T05:57:14.126Z,15.70
2017-07-26T05:59:43.884Z,15.70
2017-07-26T06:02:13.759Z,15.70
2017-07-26T06:04:42.758Z,15.70
2017-07-26T06:07:11.770Z,15.70
2017-07-26T06:09:40.770Z,15.70
2017-07-26T06:12:09.800Z,15.70
2017-07-26T06:14:39.180Z,15.70
2017-07-26T06:17:08.191Z,15.70
2017-07-26T06:19:39.168Z,15.70
2017-07-26T06:22:08.164Z,15.70
2017-07-26T06:24:37.603Z,15.80
2017-07-26T06:27:06.915Z,15.90
2017-07-26T06:29:36.254Z,15.90
2017-07-26T06:32:05.556Z,15.90
2017-07-26T06:34:35.655Z,15.80
2017-07-26T06:37:11.984Z,15.70
2017-07-26T06:39:41.316Z,15.80
2017-07-26T06:42:22.352Z,15.90
2017-07-26T06:44:51.718Z,15.90
2017-07-26T06:47:21.816Z,15.90
2017-07-26T06:49:51.160Z,15.90
2017-07-26T06:52:20.521Z,15.90
2017-07-26T06:54:49.860Z,15.80
2017-07-26T06:57:19.220Z,15.80
2017-07-26T06:59:48.546Z,15.80
2017-07-26T07:02:17.969Z,15.80
2017-07-26T07:04:47.337Z,15.80
2017-07-26T07:07:16.666Z,15.80
2017-07-26T07:09:45.978Z,15.90
2017-07-26T07:12:15.313Z,15.90
2017-07-26T07:14:44.633Z,15.90
2017-07-26T07:17:13.964Z,15.90
2017-07-26T07:20:10.884Z,15.90
2017-07-26T07:22:40.220Z,15.90
2017-07-26T07:25:10.361Z,16.00
2017-07-26T07:27:39.685Z,16.00
2017-07-26T07:30:09.072Z,16.00
2017-07-26T07:32:38.397Z,16.10
2017-07-26T07:35:07.703Z,16.20
2017-07-26T07:37:37.057Z,16.20
2017-07-26T07:40:06.398Z,16.20
2017-07-26T07:42:35.704Z,16.30
2017-07-26T07:45:05.028Z,16.30
2017-07-26T07:47:34.333Z,16.30
2017-07-26T07:50:03.659Z,16.30
2017-07-26T07:52:33.751Z,16.30
2017-07-26T07:55:03.080Z,16.30
2017-07-26T07:57:32.396Z,16.30
2017-07-26T08:00:01.728Z,16.30
2017-07-26T08:02:31.049Z,16.30
2017-07-26T08:05:00.388Z,16.40
2017-07-26T08:07:29.697Z,16.40
2017-07-26T08:09:59.030Z,16.40
2017-07-26T08:12:28.404Z,16.40
2017-07-26T08:14:57.729Z,16.40
2017-07-26T08:17:27.061Z,16.50
2017-07-26T08:19:56.404Z,16.40
2017-07-26T08:22:25.776Z,16.40
2017-07-26T08:24:55.113Z,16.40
2017-07-26T08:27:24.425Z,16.30
2017-07-26T08:29:53.749Z,16.30
2017-07-26T08:32:23.069Z,16.30
2017-07-26T08:34:52.406Z,16.30
2017-07-26T08:37:21.740Z,16.30
2017-07-26T08:39:51.041Z,16.30
2017-07-26T08:42:20.382Z,16.40
2017-07-26T08:44:49.696Z,16.40
2017-07-26T08:47:19.024Z,16.50
2017-07-26T08:49:48.336Z,16.50
2017-07-26T08:52:17.662Z,16.50
2017-07-26T08:54:46.984Z,16.50
2017-07-26T08:57:16.306Z,16.40
2017-07-26T08:59:46.393Z,16.30
2017-07-26T09:02:15.731Z,16.30
2017-07-26T09:04:45.816Z,16.30
2017-07-26T09:07:15.141Z,16.20
2017-07-26T09:09:45.224Z,16.30
2017-07-26T09:12:14.621Z,16.20
2017-07-26T09:14:43.962Z,16.30
2017-07-26T09:17:14.272Z,16.30
2017-07-26T09:19:43.597Z,16.30
2017-07-26T09:22:13.721Z,16.20
2017-07-26T09:24:43.040Z,16.20
2017-07-26T09:27:12.391Z,16.10
2017-07-26T09:29:41.696Z,16.10
2017-07-26T09:32:11.053Z,16.10
2017-07-26T09:34:40.365Z,16.10
2017-07-26T09:37:09.673Z,16.10
2017-07-26T09:39:39.004Z,16.10
2017-07-26T09:42:08.335Z,16.20
2017-07-26T09:44:38.425Z,16.30
2017-07-26T09:47:07.737Z,16.20
2017-07-26T09:49:37.847Z,16.10
2017-07-26T09:52:07.172Z,16.10
2017-07-26T09:54:37.305Z,16.10
2017-07-26T09:57:07.373Z,16.20
2017-07-26T09:59:36.696Z,16.20
2017-07-26T10:02:06.006Z,16.20
2017-07-26T10:04:35.354Z,16.20
2017-07-26T10:07:04.665Z,16.20
2017-07-26T10:09:33.997Z,16.20
2017-07-26T10:12:03.320Z,16.20
2017-07-26T10:14:32.637Z,16.20
2017-07-26T10:17:01.965Z,16.30
2017-07-26T10:19:31.284Z,16.30
2017-07-26T10:22:00.714Z,16.30
2017-07-26T10:24:30.024Z,16.30
2017-07-26T10:26:59.345Z,16.30
2017-07-26T10:29:34.364Z,16.50
2017-07-26T10:32:04.462Z,16.50
2017-07-26T10:34:34.581Z,16.50
2017-07-26T10:37:03.912Z,16.50
2017-07-26T10:39:34.193Z,16.60
2017-07-26T10:42:06.801Z,16.50
2017-07-26T10:44:36.131Z,16.60
2017-07-26T10:47:06.253Z,16.60
2017-07-26T10:49:35.580Z,16.60
2017-07-26T10:52:04.904Z,16.60
2017-07-26T10:54:34.534Z,16.60
2017-07-26T10:57:05.426Z,16.60
2017-07-26T10:59:34.725Z,16.70
2017-07-26T11:02:04.058Z,16.70
2017-07-26T11:04:33.367Z,16.80
2017-07-26T11:07:02.705Z,16.80
2017-07-26T11:09:32.789Z,17.00
2017-07-26T11:12:02.125Z,16.90
2017-07-26T11:14:32.185Z,17.10
2017-07-26T11:17:02.046Z,17.10
2017-07-26T11:19:31.621Z,17.10
2017-07-26T11:22:01.005Z,17.30
2017-07-26T11:24:30.309Z,17.30
2017-07-26T11:26:59.632Z,17.30
2017-07-26T11:29:29.042Z,17.40
2017-07-26T11:31:58.370Z,17.40
2017-07-26T11:34:27.680Z,17.50
2017-07-26T11:36:58.321Z,17.50
2017-07-26T11:39:27.754Z,17.40
2017-07-26T11:41:58.357Z,17.40
2017-07-26T11:44:27.710Z,17.40
2017-07-26T11:46:57.025Z,17.40
2017-07-26T11:49:26.358Z,17.40
2017-07-26T11:51:55.666Z,17.40
2017-07-26T11:54:24.991Z,17.40
2017-07-26T11:56:54.300Z,17.30
2017-07-26T11:59:23.633Z,17.30
2017-07-26T12:01:53.745Z,17.30
2017-07-26T12:04:23.523Z,17.20
2017-07-26T12:06:52.853Z,17.30
2017-07-26T12:09:22.207Z,17.30
2017-07-26T12:11:51.528Z,17.40
2017-07-26T12:14:20.969Z,17.40
2017-07-26T12:16:50.286Z,17.40
2017-07-26T12:19:19.620Z,17.50
2017-07-26T12:21:48.978Z,17.50
2017-07-26T12:24:18.431Z,17.50
2017-07-26T12:26:47.728Z,17.50
2017-07-26T12:29:17.148Z,17.50
2017-07-26T12:31:46.475Z,17.40
2017-07-26T12:34:16.099Z,17.40
2017-07-26T12:36:47.360Z,17.50
2017-07-26T12:39:17.443Z,17.70
2017-07-26T12:41:46.773Z,17.70
2017-07-26T12:44:16.156Z,17.80
2017-07-26T12:46:45.525Z,17.80
2017-07-26T12:49:15.316Z,18.00
2017-07-26T12:51:44.733Z,18.00
2017-07-26T12:54:14.710Z,18.10
2017-07-26T12:56:44.032Z,18.10
2017-07-26T12:59:13.437Z,18.10
2017-07-26T13:01:42.829Z,18.10
2017-07-26T13:04:12.178Z,18.20
2017-07-26T13:06:41.524Z,18.20
2017-07-26T13:09:10.955Z,18.20
2017-07-26T13:11:40.301Z,18.00
2017-07-26T13:14:09.618Z,18.10
2017-07-26T13:16:38.965Z,18.10
2017-07-26T13:19:08.272Z,18.00
2017-07-26T13:21:37.597Z,18.00
2017-07-26T13:24:06.913Z,18.10
2017-07-26T13:26:37.384Z,18.10
2017-07-26T13:29:06.756Z,18.10
2017-07-26T13:31:36.074Z,18.20
2017-07-26T13:34:06.165Z,18.20
2017-07-26T13:36:35.489Z,18.20
2017-07-26T13:39:04.857Z,18.30
2017-07-26T13:41:34.193Z,18.30
2017-07-26T13:44:03.512Z,18.40
2017-07-26T13:46:32.838Z,18.40
2017-07-26T13:49:02.170Z,18.40
2017-07-26T13:51:31.541Z,18.40
2017-07-26T13:54:00.958Z,18.40
2017-07-26T13:56:30.319Z,18.40
2017-07-26T13:59:00.396Z,18.40
2017-07-26T14:01:29.717Z,18.40
2017-07-26T14:03:59.038Z,18.40
2017-07-26T14:06:28.344Z,18.40
2017-07-26T14:08:57.692Z,18.40
2017-07-26T14:11:27.018Z,18.40
2017-07-26T14:13:56.358Z,18.40
2017-07-26T14:16:26.760Z,18.40
2017-07-26T14:18:56.095Z,18.40
2017-07-26T14:21:25.396Z,18.50
2017-07-26T14:23:54.740Z,18.60
2017-07-26T14:26:24.170Z,18.60
2017-07-26T14:28:53.620Z,18.70
2017-07-26T14:31:22.964Z,18.80
2017-07-26T14:33:52.272Z,18.90
2017-07-26T14:36:21.648Z,19.00
2017-07-26T14:38:51.028Z,19.10
2017-07-26T14:41:20.387Z,19.20
2017-07-26T14:43:49.690Z,19.30
2017-07-26T14:46:19.141Z,19.40
2017-07-26T14:48:48.508Z,19.50
2017-07-26T14:51:17.822Z,19.70
2017-07-26T14:53:47.160Z,19.80
2017-07-26T14:56:16.900Z,19.90
2017-07-26T14:58:46.201Z,20.00
2017-07-26T15:01:15.529Z,20.20
2017-07-26T15:03:45.627Z,20.30
2017-07-26T15:06:14.946Z,20.30
2017-07-26T15:08:44.275Z,20.30
2017-07-26T15:11:13.603Z,20.40
2017-07-26T15:13:42.905Z,20.50
2017-07-26T15:16:12.245Z,20.50
2017-07-26T15:18:42.325Z,20.60
2017-07-26T15:21:11.672Z,20.50
2017-07-26T15:23:41.753Z,20.70
2017-07-26T15:26:11.283Z,20.70
2017-07-26T15:28:40.689Z,20.80
2017-07-26T15:31:11.756Z,21.00
2017-07-26T15:33:41.080Z,20.90
2017-07-26T15:36:10.381Z,21.10
2017-07-26T15:38:39.722Z,21.10
2017-07-26T15:41:09.091Z,21.10
2017-07-26T15:43:38.413Z,21.20
2017-07-26T15:46:07.727Z,21.30
2017-07-26T15:48:37.058Z,21.30
2017-07-26T15:51:06.400Z,21.40
2017-07-26T15:53:35.766Z,21.30
2017-07-26T15:56:05.099Z,21.30
2017-07-26T15:58:34.514Z,21.40
2017-07-26T16:01:03.852Z,21.50
2017-07-26T16:03:33.183Z,21.50
2017-07-26T16:06:02.513Z,21.60
2017-07-26T16:08:31.829Z,21.50
2017-07-26T16:11:01.139Z,21.50
2017-07-26T16:13:30.485Z,21.40
2017-07-26T16:15:59.793Z,21.40
2017-07-26T16:18:29.156Z,21.40
2017-07-26T16:20:58.476Z,21.40
2017-07-26T16:23:28.574Z,21.20
2017-07-26T16:25:57.923Z,21.20
2017-07-26T16:28:27.239Z,21.20
2017-07-26T16:30:56.576Z,21.20
2017-07-26T16:33:25.860Z,21.20
2017-07-26T16:35:55.191Z,21.10
2017-07-26T16:38:24.522Z,21.10
2017-07-26T16:40:53.900Z,21.10
2017-07-26T16:43:23.243Z,21.10
2017-07-26T16:45:53.492Z,21.10
2017-07-26T16:48:22.843Z,21.10
2017-07-26T16:50:53.700Z,21.20
2017-07-26T16:53:25.430Z,21.20
2017-07-26T16:55:55.549Z,21.20
2017-07-26T16:58:24.904Z,21.20
2017-07-26T17:00:54.258Z,21.20
2017-07-26T17:03:24.332Z,21.30
2017-07-26T17:05:53.688Z,21.30
2017-07-26T17:08:22.997Z,21.30
2017-07-26T17:10:52.520Z,21.20
2017-07-26T17:13:21.824Z,21.20
2017-07-26T17:15:51.199Z,21.10
2017-07-26T17:18:20.577Z,21.20
2017-07-26T17:20:49.986Z,21.20
2017-07-26T17:23:19.305Z,21.20
2017-07-26T17:25:48.615Z,21.20
2017-07-26T17:28:17.928Z,21.20
2017-07-26T17:30:47.235Z,21.20
2017-07-26T17:33:16.558Z,21.10
2017-07-26T17:35:45.875Z,21.00
2017-07-26T17:38:15.206Z,21.00
2017-07-26T17:40:45.295Z,21.00
2017-07-26T17:43:14.633Z,21.00
2017-07-26T17:45:43.948Z,20.90
2017-07-26T17:48:13.269Z,20.90
2017-07-26T17:50:43.353Z,20.80
2017-07-26T17:53:12.685Z,20.80
2017-07-26T17:55:42.769Z,20.80
2017-07-26T17:58:12.096Z,20.80
2017-07-26T18:00:42.183Z,20.80
2017-07-26T18:03:11.533Z,20.80
2017-07-26T18:05:41.629Z,20.80
2017-07-26T18:11:00.356Z,20.80
2017-07-26T18:13:29.682Z,20.80
2017-07-26T18:15:58.989Z,20.80
2017-07-26T18:18:28.325Z,20.70
2017-07-26T18:20:58.385Z,20.60
2017-07-26T18:23:27.791Z,20.60
2017-07-26T18:25:57.197Z,20.60
2017-07-26T18:28:26.511Z,20.60
2017-07-26T18:30:55.832Z,20.60
2017-07-26T18:33:25.186Z,20.50
2017-07-26T18:35:54.524Z,20.50
2017-07-26T18:38:23.861Z,20.50
2017-07-26T18:40:53.195Z,20.50
2017-07-26T18:43:22.522Z,20.40
2017-07-26T18:45:52.664Z,20.40
2017-07-26T18:48:22.041Z,20.50
2017-07-26T18:50:51.374Z,20.40
2017-07-26T18:53:20.685Z,20.40
2017-07-26T18:55:50.817Z,20.20
2017-07-26T18:58:20.921Z,20.20
2017-07-26T19:00:50.250Z,20.20
2017-07-26T19:03:19.588Z,20.20
2017-07-26T19:05:48.980Z,20.20
2017-07-26T19:08:18.293Z,20.20
2017-07-26T19:10:47.632Z,20.20
2017-07-26T19:13:17.648Z,20.20
2017-07-26T19:15:46.988Z,20.20
2017-07-26T19:18:16.337Z,20.20
2017-07-26T19:20:45.682Z,20.20
2017-07-26T19:23:14.998Z,20.10
2017-07-26T19:25:44.326Z,20.20
2017-07-26T19:28:13.657Z,20.10
2017-07-26T19:30:42.965Z,20.10
2017-07-26T19:33:13.055Z,20.10
2017-07-26T19:35:43.878Z,20.10
2017-07-26T19:38:14.715Z,20.10
2017-07-26T19:40:44.943Z,20.00
2017-07-26T19:43:14.269Z,20.00
2017-07-26T19:45:43.616Z,20.00
2017-07-26T19:48:12.951Z,20.00
2017-07-26T19:50:42.274Z,19.90
2017-07-26T19:53:11.605Z,19.90
2017-07-26T19:55:41.690Z,19.90
2017-07-26T19:58:11.072Z,19.90
2017-07-26T20:00:40.397Z,19.80
2017-07-26T20:03:10.564Z,19.60
2017-07-26T20:05:45.782Z,19.60
2017-07-26T20:08:15.918Z,19.60
2017-07-26T20:10:46.233Z,19.60
2017-07-26T20:13:15.560Z,19.50
2017-07-26T20:15:44.901Z,19.50
2017-07-26T20:18:14.984Z,19.40
2017-07-26T20:20:44.316Z,19.40
2017-07-26T20:23:14.488Z,19.30
2017-07-26T20:25:43.902Z,19.20
2017-07-26T20:28:13.276Z,19.20
2017-07-26T20:30:42.601Z,19.10
2017-07-26T20:33:11.953Z,19.00
2017-07-26T20:35:42.173Z,19.00
2017-07-26T20:38:12.394Z,18.90
2017-07-26T20:40:41.820Z,18.90
2017-07-26T20:43:11.160Z,18.80
2017-07-26T20:45:41.414Z,18.80
2017-07-26T20:48:10.720Z,18.80
2017-07-26T20:50:40.069Z,18.80
2017-07-26T20:53:09.389Z,18.70
2017-07-26T20:55:38.715Z,18.70
2017-07-26T20:58:08.027Z,18.70
2017-07-26T21:00:37.433Z,18.60
2017-07-26T21:03:06.806Z,18.60
2017-07-26T21:05:36.305Z,18.50
2017-07-26T21:08:05.600Z,18.50
2017-07-26T21:10:34.944Z,18.50
2017-07-26T21:13:05.386Z,18.50
2017-07-26T21:15:34.717Z,18.50
2017-07-26T21:18:04.819Z,18.40
2017-07-26T21:20:35.610Z,18.40
2017-07-26T21:23:05.759Z,18.20
2017-07-26T21:25:35.074Z,18.20
2017-07-26T21:28:05.165Z,18.20
2017-07-26T21:30:34.476Z,18.20
2017-07-26T21:33:03.805Z,18.10
2017-07-26T21:35:33.122Z,18.10
2017-07-26T21:38:03.281Z,18.00
2017-07-26T21:40:32.688Z,18.00
2017-07-26T21:43:02.033Z,18.00
2017-07-26T21:45:31.349Z,18.00
2017-07-26T21:48:01.526Z,17.90
2017-07-26T21:50:30.841Z,17.90
2017-07-26T21:53:00.250Z,17.90
2017-07-26T21:55:29.560Z,18.00
2017-07-26T21:57:58.902Z,17.90
2017-07-26T22:00:28.220Z,17.90
2017-07-26T22:02:57.628Z,17.80
2017-07-26T22:05:26.949Z,17.80
2017-07-26T22:07:57.088Z,17.70
2017-07-26T22:10:26.446Z,17.70
2017-07-26T22:12:55.777Z,17.70
2017-07-26T22:15:25.858Z,17.60
2017-07-26T22:17:55.205Z,17.60
2017-07-26T22:20:25.308Z,17.60
2017-07-26T22:22:55.513Z,17.60
2017-07-26T22:25:24.869Z,17.60
2017-07-26T22:27:54.175Z,17.50
2017-07-26T22:30:23.505Z,17.50
2017-07-26T22:32:52.806Z,17.50
2017-07-26T22:35:22.140Z,17.50
2017-07-26T22:37:51.443Z,17.50
2017-07-26T22:40:21.527Z,17.40
2017-07-26T22:42:50.829Z,17.40
2017-07-26T22:45:20.162Z,17.40
2017-07-26T22:47:50.241Z,17.40
2017-07-26T22:50:19.577Z,17.40
2017-07-26T22:52:48.947Z,17.40
2017-07-26T22:58:10.587Z,17.30
2017-07-26T23:00:39.926Z,17.30
2017-07-26T23:03:09.275Z,17.20
2017-07-26T23:05:38.941Z,17.20
2017-07-26T23:08:08.245Z,17.20
2017-07-26T23:10:38.364Z,17.10
2017-07-26T23:13:08.452Z,17.10
2017-07-26T23:15:37.778Z,17.10
2017-07-26T23:18:07.119Z,17.00
2017-07-26T23:20:36.453Z,16.90
2017-07-26T23:23:05.854Z,16.90
2017-07-26T23:25:35.205Z,16.90
2017-07-26T23:28:04.624Z,16.90
2017-07-26T23:30:33.938Z,16.80
2017-07-26T23:33:03.262Z,16.70
2017-07-26T23:35:32.564Z,16.70
2017-07-26T23:38:01.892Z,16.70
2017-07-26T23:40:31.201Z,16.60
2017-07-26T23:43:00.523Z,16.60
2017-07-26T23:45:30.621Z,16.50
2017-07-26T23:47:59.943Z,16.50
2017-07-26T23:50:29.257Z,16.50
2017-07-26T23:52:58.600Z,16.40
2017-07-26T23:55:27.934Z,16.40
2017-07-26T23:57:58.029Z,16.40
